This is the latest recevied weather packets stored in our database for station/object K4PAD. If no packets are shown the sender has not sent any weather packets the latest 10 day(s).
| Time | Temp. | Humidity | Pressure | Rain* | Wind** | Luminosity | Snow |
|---|---|---|---|---|---|---|---|
| 1777580756 | 29.44° C | 56% | 1009.9 hPa | 0 mm | - | 314 W/m² | - |
| 1777580454 | 30° C | 53% | 1010 hPa | 0 mm | - | 203 W/m² | - |
| 1777580148 | 30.56° C | 53% | 1010.1 hPa | 0 mm | - | 266 W/m² | - |
| 1777579846 | 30.56° C | 52% | 1010 hPa | 0 mm | - | 755 W/m² | - |
| 1777579544 | 30.56° C | 52% | 1009.9 hPa | 0 mm | - | 354 W/m² | - |
| 1777579244 | 30° C | 54% | 1010.2 hPa | 0 mm | - | 429 W/m² | - |
| 1777578940 | 30.56° C | 52% | 1010.1 hPa | 0 mm | - | 269 W/m² | - |
| 1777578635 | 30.56° C | 51% | 1010.1 hPa | 0 mm | - | 744 W/m² | - |
| 1777578334 | 31.11° C | 51% | 1010.2 hPa | 0 mm | - | 468 W/m² | - |
| 1777578032 | 30.56° C | 53% | 1010.3 hPa | 0 mm | - | 1049 W/m² | - |
| 1777577726 | 30° C | 56% | 1010.3 hPa | 0 mm | - | 1219 W/m² | - |
| 1777577423 | 30° C | 56% | 1010.3 hPa | 0 mm | - | 382 W/m² | - |
| 1777577120 | 30.56° C | 56% | 1010.7 hPa | 0 mm | - | 439 W/m² | - |
| 1777576816 | 29.44° C | 62% | 1010.5 hPa | 0 mm | - | 1108 W/m² | - |
| 1777576515 | 28.33° C | 64% | 1010.6 hPa | 0 mm | - | 1084 W/m² | - |
| 1777576212 | 27.78° C | 66% | 1010.7 hPa | 0 mm | - | 324 W/m² | - |
| 1777575908 | 27.22° C | 67% | 1010.8 hPa | 0 mm | - | 290 W/m² | - |
| 1777575604 | 27.22° C | 68% | 1010.6 hPa | 0 mm | - | 598 W/m² | - |
| 1777575300 | 27.22° C | 69% | 1011.1 hPa | 0 mm | - | 469 W/m² | - |
| 1777574996 | 27.78° C | 66% | 1011.1 hPa | 0 mm | - | 458 W/m² | - |
| 1777574693 | 28.33° C | 63% | 1010.9 hPa | 0 mm | - | 363 W/m² | - |
| 1777574390 | 29.44° C | 56% | 1011.1 hPa | 0 mm | - | 227 W/m² | - |
| 1777574085 | 29.44° C | 53% | 1010.9 hPa | 0 mm | - | 193 W/m² | - |
| 1777573780 | 29.44° C | 53% | 1010.8 hPa | 0 mm | - | 232 W/m² | - |
| 1777573477 | 30° C | 50% | 1010.8 hPa | 0 mm | - | 227 W/m² | - |
* Rain latest hour (hover to see other rain measurements)
** Current wind speed in m/s (hover to see current wind gust speed)